sensor_id;sensor_type;location;lat;lon;timestamp;P1;durP1;ratioP1;P2;durP2;ratioP2
35434;SDS011;21556;55.782;37.528;2023-12-20T00:01:35;1.52;;;1.10;;
35434;SDS011;21556;55.782;37.528;2023-12-20T00:04:02;1.50;;;0.95;;
35434;SDS011;21556;55.782;37.528;2023-12-20T00:06:31;2.30;;;1.00;;
35434;SDS011;21556;55.782;37.528;2023-12-20T00:08:57;1.35;;;1.00;;
35434;SDS011;21556;55.782;37.528;2023-12-20T00:11:28;1.02;;;0.70;;
35434;SDS011;21556;55.782;37.528;2023-12-20T00:14:00;1.10;;;0.82;;
35434;SDS011;21556;55.782;37.528;2023-12-20T00:16:26;2.50;;;1.00;;
35434;SDS011;21556;55.782;37.528;2023-12-20T00:18:56;1.60;;;0.90;;
35434;SDS011;21556;55.782;37.528;2023-12-20T00:21:28;1.83;;;0.90;;
35434;SDS011;21556;55.782;37.528;2023-12-20T00:23:54;2.08;;;1.20;;
35434;SDS011;21556;55.782;37.528;2023-12-20T00:26:25;1.20;;;0.93;;
35434;SDS011;21556;55.782;37.528;2023-12-20T00:28:54;2.03;;;1.20;;
35434;SDS011;21556;55.782;37.528;2023-12-20T00:31:38;1.67;;;0.93;;
35434;SDS011;21556;55.782;37.528;2023-12-20T00:34:07;2.05;;;1.10;;
35434;SDS011;21556;55.782;37.528;2023-12-20T00:36:40;1.05;;;0.73;;
35434;SDS011;21556;55.782;37.528;2023-12-20T00:39:06;1.70;;;1.00;;
35434;SDS011;21556;55.782;37.528;2023-12-20T00:41:35;3.25;;;1.23;;
35434;SDS011;21556;55.782;37.528;2023-12-20T00:44:04;1.60;;;1.10;;
35434;SDS011;21556;55.782;37.528;2023-12-20T00:46:30;4.50;;;1.15;;
35434;SDS011;21556;55.782;37.528;2023-12-20T00:48:59;2.33;;;1.42;;
35434;SDS011;21556;55.782;37.528;2023-12-20T00:51:25;1.70;;;1.33;;
35434;SDS011;21556;55.782;37.528;2023-12-20T00:53:51;1.95;;;1.48;;
35434;SDS011;21556;55.782;37.528;2023-12-20T00:56:20;3.03;;;1.27;;
35434;SDS011;21556;55.782;37.528;2023-12-20T00:58:47;1.95;;;1.27;;
35434;SDS011;21556;55.782;37.528;2023-12-20T01:01:13;2.83;;;1.70;;
35434;SDS011;21556;55.782;37.528;2023-12-20T01:03:39;3.33;;;1.60;;
35434;SDS011;21556;55.782;37.528;2023-12-20T01:06:08;2.88;;;1.77;;
35434;SDS011;21556;55.782;37.528;2023-12-20T01:08:34;2.35;;;1.75;;
35434;SDS011;21556;55.782;37.528;2023-12-20T01:11:03;2.05;;;1.83;;
35434;SDS011;21556;55.782;37.528;2023-12-20T01:13:29;2.30;;;1.70;;
35434;SDS011;21556;55.782;37.528;2023-12-20T01:15:56;2.45;;;1.88;;
35434;SDS011;21556;55.782;37.528;2023-12-20T01:18:22;2.53;;;1.50;;
35434;SDS011;21556;55.782;37.528;2023-12-20T01:20:48;2.63;;;1.40;;
35434;SDS011;21556;55.782;37.528;2023-12-20T01:23:16;2.00;;;1.65;;
35434;SDS011;21556;55.782;37.528;2023-12-20T01:25:42;1.70;;;1.50;;
35434;SDS011;21556;55.782;37.528;2023-12-20T01:28:12;1.98;;;1.33;;
35434;SDS011;21556;55.782;37.528;2023-12-20T01:30:40;2.08;;;1.55;;
35434;SDS011;21556;55.782;37.528;2023-12-20T01:33:06;2.00;;;1.67;;
35434;SDS011;21556;55.782;37.528;2023-12-20T01:35:33;2.03;;;1.33;;
35434;SDS011;21556;55.782;37.528;2023-12-20T01:38:01;2.75;;;1.58;;
35434;SDS011;21556;55.782;37.528;2023-12-20T01:40:30;2.22;;;1.38;;
35434;SDS011;21556;55.782;37.528;2023-12-20T01:43:06;2.72;;;1.60;;
35434;SDS011;21556;55.782;37.528;2023-12-20T01:45:34;3.40;;;1.58;;
35434;SDS011;21556;55.782;37.528;2023-12-20T01:48:00;3.47;;;1.33;;
35434;SDS011;21556;55.782;37.528;2023-12-20T01:50:28;1.55;;;0.98;;
35434;SDS011;21556;55.782;37.528;2023-12-20T01:52:57;6.35;;;1.40;;
35434;SDS011;21556;55.782;37.528;2023-12-20T01:55:25;3.35;;;1.30;;
35434;SDS011;21556;55.782;37.528;2023-12-20T01:57:57;3.60;;;1.55;;
35434;SDS011;21556;55.782;37.528;2023-12-20T02:00:25;1.77;;;1.20;;
35434;SDS011;21556;55.782;37.528;2023-12-20T02:02:53;1.67;;;1.20;;
35434;SDS011;21556;55.782;37.528;2023-12-20T02:05:22;2.30;;;1.08;;
35434;SDS011;21556;55.782;37.528;2023-12-20T02:07:51;1.58;;;1.00;;
35434;SDS011;21556;55.782;37.528;2023-12-20T02:10:17;2.13;;;1.08;;
35434;SDS011;21556;55.782;37.528;2023-12-20T02:12:44;2.38;;;1.00;;
35434;SDS011;21556;55.782;37.528;2023-12-20T02:15:14;1.63;;;1.27;;
35434;SDS011;21556;55.782;37.528;2023-12-20T02:17:40;1.85;;;0.85;;
35434;SDS011;21556;55.782;37.528;2023-12-20T02:20:07;2.92;;;0.88;;
35434;SDS011;21556;55.782;37.528;2023-12-20T02:22:33;1.52;;;0.85;;
35434;SDS011;21556;55.782;37.528;2023-12-20T02:25:00;1.05;;;0.60;;
35434;SDS011;21556;55.782;37.528;2023-12-20T02:27:30;2.03;;;0.70;;
35434;SDS011;21556;55.782;37.528;2023-12-20T02:30:02;1.52;;;0.52;;
35434;SDS011;21556;55.782;37.528;2023-12-20T02:32:29;1.98;;;0.55;;
35434;SDS011;21556;55.782;37.528;2023-12-20T02:34:58;3.42;;;0.80;;
35434;SDS011;21556;55.782;37.528;2023-12-20T02:37:28;2.38;;;0.80;;
35434;SDS011;21556;55.782;37.528;2023-12-20T02:39:55;2.15;;;0.90;;
35434;SDS011;21556;55.782;37.528;2023-12-20T02:42:24;1.00;;;0.75;;
35434;SDS011;21556;55.782;37.528;2023-12-20T02:44:53;2.50;;;0.70;;
35434;SDS011;21556;55.782;37.528;2023-12-20T02:47:19;2.55;;;0.70;;
35434;SDS011;21556;55.782;37.528;2023-12-20T02:49:45;0.98;;;0.55;;
35434;SDS011;21556;55.782;37.528;2023-12-20T02:52:14;1.48;;;0.68;;
35434;SDS011;21556;55.782;37.528;2023-12-20T02:54:40;1.80;;;0.98;;
35434;SDS011;21556;55.782;37.528;2023-12-20T02:57:10;3.15;;;0.85;;
35434;SDS011;21556;55.782;37.528;2023-12-20T02:59:36;2.88;;;0.93;;
35434;SDS011;21556;55.782;37.528;2023-12-20T03:02:02;3.67;;;1.13;;
35434;SDS011;21556;55.782;37.528;2023-12-20T03:04:29;3.45;;;1.02;;
35434;SDS011;21556;55.782;37.528;2023-12-20T03:06:57;2.33;;;0.90;;
35434;SDS011;21556;55.782;37.528;2023-12-20T03:11:49;2.55;;;1.20;;
35434;SDS011;21556;55.782;37.528;2023-12-20T03:14:18;2.22;;;1.30;;
35434;SDS011;21556;55.782;37.528;2023-12-20T03:16:54;3.28;;;1.67;;
35434;SDS011;21556;55.782;37.528;2023-12-20T03:19:21;6.80;;;1.50;;
35434;SDS011;21556;55.782;37.528;2023-12-20T03:21:49;3.78;;;1.58;;
35434;SDS011;21556;55.782;37.528;2023-12-20T03:24:26;2.58;;;1.45;;
35434;SDS011;21556;55.782;37.528;2023-12-20T03:26:56;2.60;;;1.42;;
35434;SDS011;21556;55.782;37.528;2023-12-20T03:29:25;3.17;;;1.50;;
35434;SDS011;21556;55.782;37.528;2023-12-20T03:31:57;6.10;;;1.17;;
35434;SDS011;21556;55.782;37.528;2023-12-20T03:34:26;3.47;;;1.00;;
35434;SDS011;21556;55.782;37.528;2023-12-20T03:36:56;7.32;;;1.42;;
35434;SDS011;21556;55.782;37.528;2023-12-20T03:39:26;1.83;;;1.00;;
35434;SDS011;21556;55.782;37.528;2023-12-20T03:41:53;2.83;;;1.55;;
35434;SDS011;21556;55.782;37.528;2023-12-20T03:44:21;1.35;;;1.15;;
35434;SDS011;21556;55.782;37.528;2023-12-20T03:46:48;3.08;;;1.50;;
35434;SDS011;21556;55.782;37.528;2023-12-20T03:49:14;2.65;;;1.60;;
35434;SDS011;21556;55.782;37.528;2023-12-20T03:51:41;3.60;;;1.77;;
35434;SDS011;21556;55.782;37.528;2023-12-20T03:54:27;5.90;;;2.20;;
35434;SDS011;21556;55.782;37.528;2023-12-20T03:56:58;2.53;;;1.52;;
35434;SDS011;21556;55.782;37.528;2023-12-20T04:01:53;2.95;;;1.38;;
35434;SDS011;21556;55.782;37.528;2023-12-20T04:04:21;2.22;;;1.60;;
35434;SDS011;21556;55.782;37.528;2023-12-20T04:06:50;2.00;;;1.35;;
35434;SDS011;21556;55.782;37.528;2023-12-20T04:09:17;2.92;;;1.90;;
35434;SDS011;21556;55.782;37.528;2023-12-20T04:11:43;2.95;;;1.80;;
35434;SDS011;21556;55.782;37.528;2023-12-20T04:14:09;4.13;;;1.88;;
35434;SDS011;21556;55.782;37.528;2023-12-20T04:16:37;2.88;;;2.40;;
35434;SDS011;21556;55.782;37.528;2023-12-20T04:19:09;3.17;;;2.28;;
35434;SDS011;21556;55.782;37.528;2023-12-20T04:21:35;3.65;;;2.00;;
35434;SDS011;21556;55.782;37.528;2023-12-20T04:24:01;3.28;;;2.35;;
35434;SDS011;21556;55.782;37.528;2023-12-20T04:26:28;2.42;;;2.00;;
35434;SDS011;21556;55.782;37.528;2023-12-20T04:28:58;3.92;;;2.42;;
35434;SDS011;21556;55.782;37.528;2023-12-20T04:31:28;5.40;;;2.22;;
35434;SDS011;21556;55.782;37.528;2023-12-20T04:33:55;5.03;;;2.55;;
35434;SDS011;21556;55.782;37.528;2023-12-20T04:36:24;4.95;;;2.60;;
35434;SDS011;21556;55.782;37.528;2023-12-20T04:42:00;2.60;;;1.90;;
35434;SDS011;21556;55.782;37.528;2023-12-20T04:44:30;2.67;;;2.00;;
35434;SDS011;21556;55.782;37.528;2023-12-20T04:47:06;6.25;;;2.35;;
35434;SDS011;21556;55.782;37.528;2023-12-20T04:49:32;3.13;;;2.13;;
35434;SDS011;21556;55.782;37.528;2023-12-20T04:52:01;4.40;;;2.28;;
35434;SDS011;21556;55.782;37.528;2023-12-20T04:54:27;3.78;;;2.42;;
35434;SDS011;21556;55.782;37.528;2023-12-20T04:56:55;5.05;;;2.15;;
35434;SDS011;21556;55.782;37.528;2023-12-20T04:59:22;3.83;;;2.30;;
35434;SDS011;21556;55.782;37.528;2023-12-20T05:01:48;2.90;;;2.35;;
35434;SDS011;21556;55.782;37.528;2023-12-20T05:04:14;3.95;;;2.08;;
35434;SDS011;21556;55.782;37.528;2023-12-20T05:06:40;4.72;;;2.38;;
35434;SDS011;21556;55.782;37.528;2023-12-20T05:09:06;4.97;;;2.15;;
35434;SDS011;21556;55.782;37.528;2023-12-20T05:14:10;2.85;;;1.65;;
35434;SDS011;21556;55.782;37.528;2023-12-20T05:16:36;3.10;;;2.80;;
35434;SDS011;21556;55.782;37.528;2023-12-20T05:19:05;3.67;;;2.00;;
35434;SDS011;21556;55.782;37.528;2023-12-20T05:21:32;2.30;;;2.00;;
35434;SDS011;21556;55.782;37.528;2023-12-20T05:23:59;6.72;;;2.45;;
35434;SDS011;21556;55.782;37.528;2023-12-20T05:26:26;6.20;;;2.10;;
35434;SDS011;21556;55.782;37.528;2023-12-20T05:28:52;4.32;;;2.00;;
35434;SDS011;21556;55.782;37.528;2023-12-20T05:31:18;5.45;;;2.28;;
35434;SDS011;21556;55.782;37.528;2023-12-20T05:33:48;3.75;;;2.00;;
35434;SDS011;21556;55.782;37.528;2023-12-20T05:36:14;4.68;;;2.25;;
35434;SDS011;21556;55.782;37.528;2023-12-20T05:38:41;6.28;;;2.40;;
35434;SDS011;21556;55.782;37.528;2023-12-20T05:41:08;4.03;;;2.58;;
35434;SDS011;21556;55.782;37.528;2023-12-20T05:43:37;3.58;;;2.47;;
35434;SDS011;21556;55.782;37.528;2023-12-20T05:46:05;4.38;;;2.58;;
35434;SDS011;21556;55.782;37.528;2023-12-20T05:48:34;3.95;;;2.10;;
35434;SDS011;21556;55.782;37.528;2023-12-20T05:51:02;3.83;;;2.28;;
35434;SDS011;21556;55.782;37.528;2023-12-20T05:53:29;4.07;;;2.20;;
35434;SDS011;21556;55.782;37.528;2023-12-20T05:55:55;3.13;;;1.90;;
35434;SDS011;21556;55.782;37.528;2023-12-20T05:58:22;4.57;;;2.40;;
35434;SDS011;21556;55.782;37.528;2023-12-20T06:00:48;2.67;;;2.10;;
35434;SDS011;21556;55.782;37.528;2023-12-20T06:03:22;3.70;;;2.10;;
35434;SDS011;21556;55.782;37.528;2023-12-20T06:05:51;4.47;;;2.95;;
35434;SDS011;21556;55.782;37.528;2023-12-20T06:08:35;3.97;;;2.60;;
35434;SDS011;21556;55.782;37.528;2023-12-20T06:11:04;4.65;;;2.70;;
35434;SDS011;21556;55.782;37.528;2023-12-20T06:13:33;4.85;;;2.83;;
35434;SDS011;21556;55.782;37.528;2023-12-20T06:15:59;4.82;;;2.90;;
35434;SDS011;21556;55.782;37.528;2023-12-20T06:18:28;4.35;;;2.78;;
35434;SDS011;21556;55.782;37.528;2023-12-20T06:20:54;6.68;;;3.20;;
35434;SDS011;21556;55.782;37.528;2023-12-20T06:23:22;5.50;;;2.70;;
35434;SDS011;21556;55.782;37.528;2023-12-20T06:26:29;3.40;;;2.60;;
35434;SDS011;21556;55.782;37.528;2023-12-20T06:28:55;4.57;;;3.40;;
35434;SDS011;21556;55.782;37.528;2023-12-20T06:33:50;3.58;;;2.30;;
35434;SDS011;21556;55.782;37.528;2023-12-20T06:36:23;4.55;;;2.78;;
35434;SDS011;21556;55.782;37.528;2023-12-20T06:38:57;5.53;;;2.90;;
35434;SDS011;21556;55.782;37.528;2023-12-20T06:41:24;7.45;;;2.88;;
35434;SDS011;21556;55.782;37.528;2023-12-20T06:43:50;4.25;;;2.45;;
35434;SDS011;21556;55.782;37.528;2023-12-20T06:46:21;2.97;;;2.20;;
35434;SDS011;21556;55.782;37.528;2023-12-20T06:48:50;6.30;;;2.67;;
35434;SDS011;21556;55.782;37.528;2023-12-20T06:51:17;4.20;;;2.38;;
35434;SDS011;21556;55.782;37.528;2023-12-20T06:53:46;4.97;;;2.25;;
35434;SDS011;21556;55.782;37.528;2023-12-20T06:56:12;4.55;;;2.33;;
35434;SDS011;21556;55.782;37.528;2023-12-20T06:58:38;4.35;;;2.67;;
35434;SDS011;21556;55.782;37.528;2023-12-20T07:01:05;5.80;;;2.50;;
35434;SDS011;21556;55.782;37.528;2023-12-20T07:03:31;4.60;;;2.35;;
35434;SDS011;21556;55.782;37.528;2023-12-20T07:05:58;4.18;;;2.28;;
35434;SDS011;21556;55.782;37.528;2023-12-20T07:08:24;3.70;;;2.38;;
35434;SDS011;21556;55.782;37.528;2023-12-20T07:10:50;4.90;;;2.28;;
35434;SDS011;21556;55.782;37.528;2023-12-20T07:13:18;4.18;;;2.03;;
35434;SDS011;21556;55.782;37.528;2023-12-20T07:15:44;4.38;;;2.25;;
35434;SDS011;21556;55.782;37.528;2023-12-20T07:18:17;3.17;;;2.08;;
35434;SDS011;21556;55.782;37.528;2023-12-20T07:20:43;2.83;;;2.38;;
35434;SDS011;21556;55.782;37.528;2023-12-20T07:23:16;3.55;;;1.70;;
35434;SDS011;21556;55.782;37.528;2023-12-20T07:25:42;2.95;;;1.98;;
35434;SDS011;21556;55.782;37.528;2023-12-20T07:28:16;2.53;;;1.58;;
35434;SDS011;21556;55.782;37.528;2023-12-20T07:34:55;3.08;;;1.63;;
35434;SDS011;21556;55.782;37.528;2023-12-20T07:44:12;4.28;;;1.90;;
35434;SDS011;21556;55.782;37.528;2023-12-20T07:46:56;4.57;;;1.95;;
35434;SDS011;21556;55.782;37.528;2023-12-20T07:49:50;2.00;;;1.38;;
35434;SDS011;21556;55.782;37.528;2023-12-20T07:52:36;2.92;;;2.35;;
35434;SDS011;21556;55.782;37.528;2023-12-20T07:55:19;4.63;;;1.92;;
35434;SDS011;21556;55.782;37.528;2023-12-20T07:57:48;5.60;;;1.67;;
35434;SDS011;21556;55.782;37.528;2023-12-20T08:00:17;3.13;;;1.55;;
35434;SDS011;21556;55.782;37.528;2023-12-20T08:02:46;2.47;;;1.42;;
35434;SDS011;21556;55.782;37.528;2023-12-20T08:05:23;2.63;;;1.42;;
35434;SDS011;21556;55.782;37.528;2023-12-20T08:07:53;2.20;;;1.42;;
35434;SDS011;21556;55.782;37.528;2023-12-20T08:10:24;3.67;;;1.30;;
35434;SDS011;21556;55.782;37.528;2023-12-20T08:13:05;3.00;;;1.40;;
35434;SDS011;21556;55.782;37.528;2023-12-20T08:15:35;2.67;;;1.45;;
35434;SDS011;21556;55.782;37.528;2023-12-20T08:18:10;4.28;;;1.80;;
35434;SDS011;21556;55.782;37.528;2023-12-20T08:20:36;1.92;;;1.40;;
35434;SDS011;21556;55.782;37.528;2023-12-20T08:23:15;2.20;;;1.52;;
35434;SDS011;21556;55.782;37.528;2023-12-20T08:25:44;2.70;;;2.00;;
35434;SDS011;21556;55.782;37.528;2023-12-20T08:28:18;2.80;;;1.60;;
35434;SDS011;21556;55.782;37.528;2023-12-20T08:30:44;4.28;;;1.60;;
35434;SDS011;21556;55.782;37.528;2023-12-20T08:33:38;2.05;;;1.60;;
35434;SDS011;21556;55.782;37.528;2023-12-20T08:36:05;2.47;;;1.30;;
35434;SDS011;21556;55.782;37.528;2023-12-20T08:38:32;3.25;;;1.60;;
35434;SDS011;21556;55.782;37.528;2023-12-20T08:41:04;2.22;;;1.38;;
35434;SDS011;21556;55.782;37.528;2023-12-20T08:43:36;2.22;;;1.65;;
35434;SDS011;21556;55.782;37.528;2023-12-20T08:46:02;6.55;;;1.60;;
35434;SDS011;21556;55.782;37.528;2023-12-20T08:48:28;2.00;;;1.38;;
35434;SDS011;21556;55.782;37.528;2023-12-20T08:50:54;1.90;;;1.50;;
35434;SDS011;21556;55.782;37.528;2023-12-20T08:53:20;3.10;;;1.58;;
35434;SDS011;21556;55.782;37.528;2023-12-20T08:55:54;2.72;;;1.48;;
35434;SDS011;21556;55.782;37.528;2023-12-20T08:58:31;4.88;;;1.77;;
35434;SDS011;21556;55.782;37.528;2023-12-20T09:00:57;2.03;;;1.60;;
35434;SDS011;21556;55.782;37.528;2023-12-20T09:03:23;3.67;;;1.80;;
35434;SDS011;21556;55.782;37.528;2023-12-20T09:05:58;2.95;;;1.60;;
35434;SDS011;21556;55.782;37.528;2023-12-20T09:08:24;3.17;;;1.92;;
35434;SDS011;21556;55.782;37.528;2023-12-20T09:10:51;2.13;;;1.70;;
35434;SDS011;21556;55.782;37.528;2023-12-20T09:13:17;3.25;;;1.90;;
35434;SDS011;21556;55.782;37.528;2023-12-20T09:15:43;2.65;;;1.80;;
35434;SDS011;21556;55.782;37.528;2023-12-20T09:18:09;2.22;;;1.50;;
35434;SDS011;21556;55.782;37.528;2023-12-20T09:20:36;3.25;;;1.83;;
35434;SDS011;21556;55.782;37.528;2023-12-20T09:23:02;3.38;;;1.73;;
35434;SDS011;21556;55.782;37.528;2023-12-20T09:25:28;2.67;;;1.75;;
35434;SDS011;21556;55.782;37.528;2023-12-20T09:27:55;5.30;;;2.20;;
35434;SDS011;21556;55.782;37.528;2023-12-20T09:30:21;3.60;;;1.98;;
35434;SDS011;21556;55.782;37.528;2023-12-20T09:32:53;2.08;;;1.50;;
35434;SDS011;21556;55.782;37.528;2023-12-20T09:35:19;4.30;;;1.88;;
35434;SDS011;21556;55.782;37.528;2023-12-20T09:37:46;6.55;;;1.90;;
35434;SDS011;21556;55.782;37.528;2023-12-20T09:40:12;2.50;;;1.73;;
35434;SDS011;21556;55.782;37.528;2023-12-20T09:45:33;3.03;;;1.48;;
35434;SDS011;21556;55.782;37.528;2023-12-20T09:48:00;3.80;;;1.92;;
35434;SDS011;21556;55.782;37.528;2023-12-20T09:50:27;3.10;;;1.60;;
35434;SDS011;21556;55.782;37.528;2023-12-20T09:53:02;4.28;;;1.73;;
35434;SDS011;21556;55.782;37.528;2023-12-20T09:55:32;2.55;;;1.83;;
35434;SDS011;21556;55.782;37.528;2023-12-20T09:57:59;1.80;;;1.38;;
35434;SDS011;21556;55.782;37.528;2023-12-20T10:00:29;2.35;;;1.77;;
35434;SDS011;21556;55.782;37.528;2023-12-20T10:03:04;2.13;;;1.83;;
35434;SDS011;21556;55.782;37.528;2023-12-20T10:05:35;2.28;;;1.45;;
35434;SDS011;21556;55.782;37.528;2023-12-20T10:08:07;1.75;;;1.40;;
35434;SDS011;21556;55.782;37.528;2023-12-20T10:10:33;3.05;;;1.40;;
35434;SDS011;21556;55.782;37.528;2023-12-20T10:13:06;3.33;;;1.73;;
35434;SDS011;21556;55.782;37.528;2023-12-20T10:15:43;3.28;;;1.40;;
35434;SDS011;21556;55.782;37.528;2023-12-20T10:18:41;2.63;;;2.08;;
35434;SDS011;21556;55.782;37.528;2023-12-20T10:21:15;3.35;;;1.83;;
35434;SDS011;21556;55.782;37.528;2023-12-20T10:23:45;2.10;;;1.50;;
35434;SDS011;21556;55.782;37.528;2023-12-20T10:26:26;2.95;;;1.27;;
35434;SDS011;21556;55.782;37.528;2023-12-20T10:28:59;3.53;;;1.30;;
35434;SDS011;21556;55.782;37.528;2023-12-20T10:31:30;2.38;;;1.23;;
35434;SDS011;21556;55.782;37.528;2023-12-20T10:33:58;3.38;;;1.70;;
35434;SDS011;21556;55.782;37.528;2023-12-20T10:36:31;2.72;;;1.52;;
35434;SDS011;21556;55.782;37.528;2023-12-20T10:38:59;1.65;;;1.30;;
35434;SDS011;21556;55.782;37.528;2023-12-20T10:41:26;2.92;;;1.40;;
35434;SDS011;21556;55.782;37.528;2023-12-20T10:43:55;2.40;;;1.50;;
35434;SDS011;21556;55.782;37.528;2023-12-20T10:46:27;2.20;;;1.40;;
35434;SDS011;21556;55.782;37.528;2023-12-20T10:48:57;1.27;;;1.05;;
35434;SDS011;21556;55.782;37.528;2023-12-20T10:51:25;2.45;;;1.60;;
35434;SDS011;21556;55.782;37.528;2023-12-20T10:53:58;2.70;;;1.60;;
35434;SDS011;21556;55.782;37.528;2023-12-20T11:00:06;2.10;;;1.38;;
35434;SDS011;21556;55.782;37.528;2023-12-20T11:03:32;2.50;;;1.77;;
35434;SDS011;21556;55.782;37.528;2023-12-20T11:06:10;1.50;;;1.30;;
35434;SDS011;21556;55.782;37.528;2023-12-20T11:11:44;2.63;;;1.20;;
35434;SDS011;21556;55.782;37.528;2023-12-20T11:14:43;5.70;;;1.58;;
35434;SDS011;21556;55.782;37.528;2023-12-20T11:17:13;1.80;;;1.20;;
35434;SDS011;21556;55.782;37.528;2023-12-20T11:25:05;3.20;;;1.55;;
35434;SDS011;21556;55.782;37.528;2023-12-20T11:30:00;3.05;;;1.77;;
35434;SDS011;21556;55.782;37.528;2023-12-20T11:32:32;3.90;;;1.33;;
35434;SDS011;21556;55.782;37.528;2023-12-20T11:44:51;2.78;;;1.73;;
35434;SDS011;21556;55.782;37.528;2023-12-20T11:52:43;2.65;;;1.70;;
35434;SDS011;21556;55.782;37.528;2023-12-20T12:00:06;2.70;;;1.75;;
35434;SDS011;21556;55.782;37.528;2023-12-20T12:08:22;2.15;;;1.23;;
35434;SDS011;21556;55.782;37.528;2023-12-20T12:15:02;1.65;;;1.10;;
35434;SDS011;21556;55.782;37.528;2023-12-20T12:18:17;2.40;;;1.10;;
35434;SDS011;21556;55.782;37.528;2023-12-20T12:20:43;2.50;;;1.40;;
35434;SDS011;21556;55.782;37.528;2023-12-20T12:23:09;2.35;;;1.67;;
35434;SDS011;21556;55.782;37.528;2023-12-20T12:25:36;2.50;;;1.42;;
35434;SDS011;21556;55.782;37.528;2023-12-20T12:28:05;2.75;;;1.45;;
35434;SDS011;21556;55.782;37.528;2023-12-20T12:30:31;2.13;;;1.30;;
35434;SDS011;21556;55.782;37.528;2023-12-20T12:32:57;2.33;;;1.50;;
35434;SDS011;21556;55.782;37.528;2023-12-20T12:35:23;3.03;;;1.30;;
35434;SDS011;21556;55.782;37.528;2023-12-20T12:37:50;1.80;;;1.48;;
35434;SDS011;21556;55.782;37.528;2023-12-20T12:40:17;2.22;;;1.45;;
35434;SDS011;21556;55.782;37.528;2023-12-20T12:42:46;2.60;;;1.67;;
35434;SDS011;21556;55.782;37.528;2023-12-20T12:45:13;2.45;;;1.77;;
35434;SDS011;21556;55.782;37.528;2023-12-20T12:47:48;4.88;;;1.70;;
35434;SDS011;21556;55.782;37.528;2023-12-20T12:50:14;2.97;;;1.75;;
35434;SDS011;21556;55.782;37.528;2023-12-20T12:52:40;3.97;;;1.90;;
35434;SDS011;21556;55.782;37.528;2023-12-20T12:55:07;2.78;;;1.90;;
35434;SDS011;21556;55.782;37.528;2023-12-20T12:57:33;4.80;;;2.00;;
35434;SDS011;21556;55.782;37.528;2023-12-20T13:02:29;3.20;;;2.03;;
35434;SDS011;21556;55.782;37.528;2023-12-20T13:04:55;6.30;;;2.58;;
35434;SDS011;21556;55.782;37.528;2023-12-20T13:07:21;3.08;;;1.88;;
35434;SDS011;21556;55.782;37.528;2023-12-20T13:09:47;2.35;;;1.75;;
35434;SDS011;21556;55.782;37.528;2023-12-20T13:12:13;5.15;;;2.45;;
35434;SDS011;21556;55.782;37.528;2023-12-20T13:14:40;2.50;;;1.58;;
35434;SDS011;21556;55.782;37.528;2023-12-20T13:17:06;3.13;;;1.80;;
35434;SDS011;21556;55.782;37.528;2023-12-20T13:19:35;2.83;;;1.80;;
35434;SDS011;21556;55.782;37.528;2023-12-20T13:22:01;2.22;;;1.55;;
35434;SDS011;21556;55.782;37.528;2023-12-20T13:24:31;2.22;;;1.33;;
35434;SDS011;21556;55.782;37.528;2023-12-20T13:27:29;1.80;;;1.45;;
35434;SDS011;21556;55.782;37.528;2023-12-20T13:30:01;3.17;;;1.80;;
35434;SDS011;21556;55.782;37.528;2023-12-20T13:32:31;3.22;;;1.60;;
35434;SDS011;21556;55.782;37.528;2023-12-20T13:34:57;3.47;;;1.90;;
35434;SDS011;21556;55.782;37.528;2023-12-20T13:37:31;3.45;;;1.83;;
35434;SDS011;21556;55.782;37.528;2023-12-20T13:39:57;2.00;;;1.52;;
35434;SDS011;21556;55.782;37.528;2023-12-20T13:42:29;1.95;;;1.27;;
35434;SDS011;21556;55.782;37.528;2023-12-20T13:45:02;2.85;;;1.48;;
35434;SDS011;21556;55.782;37.528;2023-12-20T13:47:31;1.80;;;1.13;;
35434;SDS011;21556;55.782;37.528;2023-12-20T13:49:57;2.25;;;1.30;;
35434;SDS011;21556;55.782;37.528;2023-12-20T13:52:26;2.97;;;1.70;;
35434;SDS011;21556;55.782;37.528;2023-12-20T13:54:52;6.70;;;2.33;;
35434;SDS011;21556;55.782;37.528;2023-12-20T13:57:19;5.78;;;1.80;;
35434;SDS011;21556;55.782;37.528;2023-12-20T13:59:48;5.35;;;2.70;;
35434;SDS011;21556;55.782;37.528;2023-12-20T14:02:15;5.20;;;1.85;;
35434;SDS011;21556;55.782;37.528;2023-12-20T14:04:44;3.88;;;1.73;;
35434;SDS011;21556;55.782;37.528;2023-12-20T14:07:13;3.92;;;2.22;;
35434;SDS011;21556;55.782;37.528;2023-12-20T14:09:40;4.45;;;2.20;;
35434;SDS011;21556;55.782;37.528;2023-12-20T14:12:11;4.72;;;1.98;;
35434;SDS011;21556;55.782;37.528;2023-12-20T14:14:38;3.85;;;2.05;;
35434;SDS011;21556;55.782;37.528;2023-12-20T14:17:13;4.97;;;1.65;;
35434;SDS011;21556;55.782;37.528;2023-12-20T14:19:43;3.70;;;2.13;;
35434;SDS011;21556;55.782;37.528;2023-12-20T14:22:12;3.15;;;2.10;;
35434;SDS011;21556;55.782;37.528;2023-12-20T14:24:42;3.53;;;1.92;;
35434;SDS011;21556;55.782;37.528;2023-12-20T14:27:11;2.80;;;1.80;;
35434;SDS011;21556;55.782;37.528;2023-12-20T14:29:38;5.10;;;1.90;;
35434;SDS011;21556;55.782;37.528;2023-12-20T14:32:05;3.20;;;1.70;;
35434;SDS011;21556;55.782;37.528;2023-12-20T14:34:31;3.75;;;1.52;;
35434;SDS011;21556;55.782;37.528;2023-12-20T14:37:09;4.30;;;2.00;;
35434;SDS011;21556;55.782;37.528;2023-12-20T14:39:35;4.18;;;1.65;;
35434;SDS011;21556;55.782;37.528;2023-12-20T14:42:08;3.30;;;2.08;;
35434;SDS011;21556;55.782;37.528;2023-12-20T14:44:40;3.08;;;1.50;;
35434;SDS011;21556;55.782;37.528;2023-12-20T14:50:05;2.17;;;1.70;;
35434;SDS011;21556;55.782;37.528;2023-12-20T14:52:46;6.35;;;2.00;;
35434;SDS011;21556;55.782;37.528;2023-12-20T14:55:35;2.33;;;1.05;;
35434;SDS011;21556;55.782;37.528;2023-12-20T14:58:24;3.40;;;1.42;;
35434;SDS011;21556;55.782;37.528;2023-12-20T15:00:52;1.40;;;0.63;;
35434;SDS011;21556;55.782;37.528;2023-12-20T15:03:21;1.40;;;1.00;;
35434;SDS011;21556;55.782;37.528;2023-12-20T15:05:49;5.80;;;1.30;;
35434;SDS011;21556;55.782;37.528;2023-12-20T15:08:16;1.48;;;1.00;;
35434;SDS011;21556;55.782;37.528;2023-12-20T15:10:45;3.20;;;1.40;;
35434;SDS011;21556;55.782;37.528;2023-12-20T15:13:14;3.10;;;1.50;;
35434;SDS011;21556;55.782;37.528;2023-12-20T15:15:40;2.85;;;1.33;;
35434;SDS011;21556;55.782;37.528;2023-12-20T15:18:12;1.70;;;0.90;;
35434;SDS011;21556;55.782;37.528;2023-12-20T15:20:42;1.67;;;1.30;;
35434;SDS011;21556;55.782;37.528;2023-12-20T15:23:14;1.73;;;1.20;;
35434;SDS011;21556;55.782;37.528;2023-12-20T15:25:41;2.08;;;1.20;;
35434;SDS011;21556;55.782;37.528;2023-12-20T15:28:08;2.20;;;1.15;;
35434;SDS011;21556;55.782;37.528;2023-12-20T15:30:40;3.35;;;1.30;;
35434;SDS011;21556;55.782;37.528;2023-12-20T15:33:16;2.75;;;1.10;;
35434;SDS011;21556;55.782;37.528;2023-12-20T15:35:45;1.38;;;1.08;;
35434;SDS011;21556;55.782;37.528;2023-12-20T15:38:12;1.73;;;1.00;;
35434;SDS011;21556;55.782;37.528;2023-12-20T15:40:44;2.28;;;1.40;;
35434;SDS011;21556;55.782;37.528;2023-12-20T15:43:15;3.85;;;1.77;;
35434;SDS011;21556;55.782;37.528;2023-12-20T15:45:42;2.30;;;1.40;;
35434;SDS011;21556;55.782;37.528;2023-12-20T15:48:08;2.28;;;1.20;;
35434;SDS011;21556;55.782;37.528;2023-12-20T15:50:41;1.45;;;1.02;;
35434;SDS011;21556;55.782;37.528;2023-12-20T15:53:07;2.35;;;1.33;;
35434;SDS011;21556;55.782;37.528;2023-12-20T15:55:37;3.88;;;1.52;;
35434;SDS011;21556;55.782;37.528;2023-12-20T15:58:13;1.92;;;1.45;;
35434;SDS011;21556;55.782;37.528;2023-12-20T16:00:40;2.20;;;1.30;;
35434;SDS011;21556;55.782;37.528;2023-12-20T16:03:07;2.05;;;1.27;;
35434;SDS011;21556;55.782;37.528;2023-12-20T16:05:36;1.65;;;1.10;;